sensor_id;sensor_type;location;lat;lon;timestamp;temperature;humidity
55329;DHT22;41205;44.264;19.884;2022-08-21T00:01:14;538.30;2406.40
55329;DHT22;41205;44.264;19.884;2022-08-21T00:03:40;538.20;2406.40
55329;DHT22;41205;44.264;19.884;2022-08-21T00:06:06;538.20;2406.40
55329;DHT22;41205;44.264;19.884;2022-08-21T00:08:31;538.20;2406.40
55329;DHT22;41205;44.264;19.884;2022-08-21T00:10:57;538.20;2406.40
55329;DHT22;41205;44.264;19.884;2022-08-21T00:13:23;538.20;2406.40
55329;DHT22;41205;44.264;19.884;2022-08-21T00:15:49;538.10;2406.40
55329;DHT22;41205;44.264;19.884;2022-08-21T00:18:15;538.20;2406.40
55329;DHT22;41205;44.264;19.884;2022-08-21T00:20:42;538.20;2406.40
55329;DHT22;41205;44.264;19.884;2022-08-21T00:23:08;538.30;2406.40
55329;DHT22;41205;44.264;19.884;2022-08-21T00:25:33;538.30;2406.40
55329;DHT22;41205;44.264;19.884;2022-08-21T00:27:59;538.20;2406.40
55329;DHT22;41205;44.264;19.884;2022-08-21T00:30:27;538.10;2406.40
55329;DHT22;41205;44.264;19.884;2022-08-21T00:32:53;538.20;2406.40
55329;DHT22;41205;44.264;19.884;2022-08-21T00:35:21;538.20;2406.40
55329;DHT22;41205;44.264;19.884;2022-08-21T00:37:47;538.20;2406.40
55329;DHT22;41205;44.264;19.884;2022-08-21T00:40:15;538.20;2406.40
55329;DHT22;41205;44.264;19.884;2022-08-21T00:42:41;538.20;2406.40
55329;DHT22;41205;44.264;19.884;2022-08-21T00:45:08;538.30;2406.40
55329;DHT22;41205;44.264;19.884;2022-08-21T00:47:34;538.20;2406.40
55329;DHT22;41205;44.264;19.884;2022-08-21T00:50:00;538.10;2406.40
55329;DHT22;41205;44.264;19.884;2022-08-21T00:52:27;538.00;2406.40
55329;DHT22;41205;44.264;19.884;2022-08-21T00:54:53;538.00;2406.40
55329;DHT22;41205;44.264;19.884;2022-08-21T00:57:21;538.20;2406.40
55329;DHT22;41205;44.264;19.884;2022-08-21T00:59:48;538.20;2406.40
55329;DHT22;41205;44.264;19.884;2022-08-21T01:02:15;538.20;2406.40
55329;DHT22;41205;44.264;19.884;2022-08-21T01:04:40;538.20;2406.40
55329;DHT22;41205;44.264;19.884;2022-08-21T01:07:06;538.20;2406.40
55329;DHT22;41205;44.264;19.884;2022-08-21T01:09:32;538.20;2406.40
55329;DHT22;41205;44.264;19.884;2022-08-21T01:11:58;538.20;2406.40
55329;DHT22;41205;44.264;19.884;2022-08-21T01:14:24;538.00;2406.40
55329;DHT22;41205;44.264;19.884;2022-08-21T01:16:50;538.00;2406.40
55329;DHT22;41205;44.264;19.884;2022-08-21T01:19:16;538.00;2406.40
55329;DHT22;41205;44.264;19.884;2022-08-21T01:21:42;538.00;2406.40
55329;DHT22;41205;44.264;19.884;2022-08-21T01:24:08;537.80;2406.40
55329;DHT22;41205;44.264;19.884;2022-08-21T01:26:35;537.70;2406.40
55329;DHT22;41205;44.264;19.884;2022-08-21T01:31:29;537.60;2406.40
55329;DHT22;41205;44.264;19.884;2022-08-21T01:33:56;537.60;2406.40
55329;DHT22;41205;44.264;19.884;2022-08-21T01:36:22;537.60;2406.40
55329;DHT22;41205;44.264;19.884;2022-08-21T01:38:48;537.60;2406.40
55329;DHT22;41205;44.264;19.884;2022-08-21T01:41:14;537.60;2406.40
55329;DHT22;41205;44.264;19.884;2022-08-21T01:43:41;537.60;2406.40
55329;DHT22;41205;44.264;19.884;2022-08-21T01:46:07;537.60;2406.40
55329;DHT22;41205;44.264;19.884;2022-08-21T01:48:33;512.90;2380.80
55329;DHT22;41205;44.264;19.884;2022-08-21T01:50:59;512.90;2380.80
55329;DHT22;41205;44.264;19.884;2022-08-21T01:53:24;537.60;2406.40
55329;DHT22;41205;44.264;19.884;2022-08-21T01:55:50;512.90;2380.80
55329;DHT22;41205;44.264;19.884;2022-08-21T01:58:15;512.90;2380.80
55329;DHT22;41205;44.264;19.884;2022-08-21T02:00:41;537.60;2406.40
55329;DHT22;41205;44.264;19.884;2022-08-21T02:03:07;512.90;2380.80
55329;DHT22;41205;44.264;19.884;2022-08-21T02:05:32;512.90;2380.80
55329;DHT22;41205;44.264;19.884;2022-08-21T02:07:58;512.90;2380.80
55329;DHT22;41205;44.264;19.884;2022-08-21T02:10:25;512.90;2380.80
55329;DHT22;41205;44.264;19.884;2022-08-21T02:12:52;512.90;2380.80
55329;DHT22;41205;44.264;19.884;2022-08-21T02:15:17;537.60;2406.40
55329;DHT22;41205;44.264;19.884;2022-08-21T02:17:51;537.60;2406.40
55329;DHT22;41205;44.264;19.884;2022-08-21T02:22:48;512.90;2380.80
55329;DHT22;41205;44.264;19.884;2022-08-21T02:25:14;512.90;2380.80
55329;DHT22;41205;44.264;19.884;2022-08-21T02:27:41;537.60;2406.40
55329;DHT22;41205;44.264;19.884;2022-08-21T02:30:08;537.70;2406.40
55329;DHT22;41205;44.264;19.884;2022-08-21T02:32:34;537.60;2406.40
55329;DHT22;41205;44.264;19.884;2022-08-21T02:35:00;537.60;2406.40
55329;DHT22;41205;44.264;19.884;2022-08-21T02:37:26;537.70;2406.40
55329;DHT22;41205;44.264;19.884;2022-08-21T02:39:51;537.80;2406.40
55329;DHT22;41205;44.264;19.884;2022-08-21T02:42:17;537.80;2406.40
55329;DHT22;41205;44.264;19.884;2022-08-21T02:44:43;537.80;2406.40
55329;DHT22;41205;44.264;19.884;2022-08-21T02:47:08;537.80;2406.40
55329;DHT22;41205;44.264;19.884;2022-08-21T02:49:34;537.80;2406.40
55329;DHT22;41205;44.264;19.884;2022-08-21T02:51:59;537.80;2406.40
55329;DHT22;41205;44.264;19.884;2022-08-21T02:54:25;537.80;2406.40
55329;DHT22;41205;44.264;19.884;2022-08-21T02:56:51;537.80;2406.40
55329;DHT22;41205;44.264;19.884;2022-08-21T02:59:16;537.80;2406.40
55329;DHT22;41205;44.264;19.884;2022-08-21T03:01:42;537.80;2406.40
55329;DHT22;41205;44.264;19.884;2022-08-21T03:04:07;537.80;2406.40
55329;DHT22;41205;44.264;19.884;2022-08-21T03:06:33;537.80;2406.40
55329;DHT22;41205;44.264;19.884;2022-08-21T03:08:59;537.80;2406.40
55329;DHT22;41205;44.264;19.884;2022-08-21T03:11:24;537.90;2406.40
55329;DHT22;41205;44.264;19.884;2022-08-21T03:13:51;537.90;2406.40
55329;DHT22;41205;44.264;19.884;2022-08-21T03:16:17;538.00;2406.40
55329;DHT22;41205;44.264;19.884;2022-08-21T03:18:44;538.00;2406.40
55329;DHT22;41205;44.264;19.884;2022-08-21T03:21:10;537.90;2406.40
55329;DHT22;41205;44.264;19.884;2022-08-21T03:23:36;537.90;2406.40
55329;DHT22;41205;44.264;19.884;2022-08-21T03:26:01;537.90;2406.40
55329;DHT22;41205;44.264;19.884;2022-08-21T03:28:27;538.00;2406.40
55329;DHT22;41205;44.264;19.884;2022-08-21T03:30:53;537.90;2406.40
55329;DHT22;41205;44.264;19.884;2022-08-21T03:33:19;537.90;2406.40
55329;DHT22;41205;44.264;19.884;2022-08-21T03:35:46;537.90;2406.40
55329;DHT22;41205;44.264;19.884;2022-08-21T03:38:12;537.90;2406.40
55329;DHT22;41205;44.264;19.884;2022-08-21T03:40:38;537.90;2406.40
55329;DHT22;41205;44.264;19.884;2022-08-21T03:43:04;537.90;2406.40
55329;DHT22;41205;44.264;19.884;2022-08-21T03:45:30;537.80;2406.40
55329;DHT22;41205;44.264;19.884;2022-08-21T03:47:59;537.70;2406.40
55329;DHT22;41205;44.264;19.884;2022-08-21T03:50:26;537.60;2406.40
55329;DHT22;41205;44.264;19.884;2022-08-21T03:52:51;537.60;2406.40
55329;DHT22;41205;44.264;19.884;2022-08-21T03:55:17;537.60;2406.40
55329;DHT22;41205;44.264;19.884;2022-08-21T03:57:43;537.70;2406.40
55329;DHT22;41205;44.264;19.884;2022-08-21T04:00:09;537.70;2406.40
55329;DHT22;41205;44.264;19.884;2022-08-21T04:02:37;537.80;2406.40
55329;DHT22;41205;44.264;19.884;2022-08-21T04:05:03;537.80;2406.40
55329;DHT22;41205;44.264;19.884;2022-08-21T04:07:28;537.80;2406.40
55329;DHT22;41205;44.264;19.884;2022-08-21T04:09:54;537.90;2406.40
55329;DHT22;41205;44.264;19.884;2022-08-21T04:12:20;537.90;2406.40
55329;DHT22;41205;44.264;19.884;2022-08-21T04:14:46;537.90;2406.40
55329;DHT22;41205;44.264;19.884;2022-08-21T04:17:11;537.90;2406.40
55329;DHT22;41205;44.264;19.884;2022-08-21T04:19:37;538.00;2406.40
55329;DHT22;41205;44.264;19.884;2022-08-21T04:22:02;538.00;2406.40
55329;DHT22;41205;44.264;19.884;2022-08-21T04:24:28;538.20;2406.40
55329;DHT22;41205;44.264;19.884;2022-08-21T04:26:53;538.10;2406.40
55329;DHT22;41205;44.264;19.884;2022-08-21T04:29:19;538.20;2406.40
55329;DHT22;41205;44.264;19.884;2022-08-21T04:31:45;538.30;2406.40
55329;DHT22;41205;44.264;19.884;2022-08-21T04:34:10;538.40;2406.40
55329;DHT22;41205;44.264;19.884;2022-08-21T04:36:36;538.50;2406.40
55329;DHT22;41205;44.264;19.884;2022-08-21T04:39:02;563.20;2432.00
55329;DHT22;41205;44.264;19.884;2022-08-21T04:41:28;563.30;2432.00
55329;DHT22;41205;44.264;19.884;2022-08-21T04:43:53;563.40;2432.00
55329;DHT22;41205;44.264;19.884;2022-08-21T04:46:20;563.60;2432.00
55329;DHT22;41205;44.264;19.884;2022-08-21T04:48:46;563.70;2432.00
55329;DHT22;41205;44.264;19.884;2022-08-21T04:51:13;563.80;2432.00
55329;DHT22;41205;44.264;19.884;2022-08-21T04:53:41;563.90;2432.00
55329;DHT22;41205;44.264;19.884;2022-08-21T04:56:10;563.90;2432.00
55329;DHT22;41205;44.264;19.884;2022-08-21T04:58:36;563.90;2432.00
55329;DHT22;41205;44.264;19.884;2022-08-21T05:01:03;563.90;2432.00
55329;DHT22;41205;44.264;19.884;2022-08-21T05:03:29;564.00;2432.00
55329;DHT22;41205;44.264;19.884;2022-08-21T05:05:56;563.90;2432.00
55329;DHT22;41205;44.264;19.884;2022-08-21T05:08:22;563.90;2432.00
55329;DHT22;41205;44.264;19.884;2022-08-21T05:10:48;564.00;2432.00
55329;DHT22;41205;44.264;19.884;2022-08-21T05:13:14;563.90;2432.00
55329;DHT22;41205;44.264;19.884;2022-08-21T05:15:40;588.90;2432.00
55329;DHT22;41205;44.264;19.884;2022-08-21T05:18:07;589.30;2432.00
55329;DHT22;41205;44.264;19.884;2022-08-21T05:20:32;614.80;2432.00
55329;DHT22;41205;44.264;19.884;2022-08-21T05:22:59;692.00;2432.00
55329;DHT22;41205;44.264;19.884;2022-08-21T05:25:25;717.30;2432.00
55329;DHT22;41205;44.264;19.884;2022-08-21T05:27:51;768.30;2355.20
55329;DHT22;41205;44.264;19.884;2022-08-21T05:30:16;819.40;2048.00
55329;DHT22;41205;44.264;19.884;2022-08-21T05:32:42;845.60;1868.80
55329;DHT22;41205;44.264;19.884;2022-08-21T05:35:07;870.70;1792.00
55329;DHT22;41205;44.264;19.884;2022-08-21T05:37:34;871.20;1715.20
55329;DHT22;41205;44.264;19.884;2022-08-21T05:39:59;820.00;1843.20
55329;DHT22;41205;44.264;19.884;2022-08-21T05:42:25;794.00;1971.20
55329;DHT22;41205;44.264;19.884;2022-08-21T05:44:51;768.00;2073.60
55329;DHT22;41205;44.264;19.884;2022-08-21T05:47:17;742.80;2150.40
55329;DHT22;41205;44.264;19.884;2022-08-21T05:49:42;717.10;2304.00
55329;DHT22;41205;44.264;19.884;2022-08-21T05:52:08;692.00;2432.00
55329;DHT22;41205;44.264;19.884;2022-08-21T05:54:34;691.70;2432.00
55329;DHT22;41205;44.264;19.884;2022-08-21T05:57:01;691.40;2432.00
55329;DHT22;41205;44.264;19.884;2022-08-21T05:59:26;691.30;2432.00
55329;DHT22;41205;44.264;19.884;2022-08-21T06:01:53;691.50;2432.00
55329;DHT22;41205;44.264;19.884;2022-08-21T06:04:18;717.70;2432.00
55329;DHT22;41205;44.264;19.884;2022-08-21T06:06:44;794.30;2201.60
55329;DHT22;41205;44.264;19.884;2022-08-21T06:09:09;845.00;1920.00
55329;DHT22;41205;44.264;19.884;2022-08-21T06:11:35;845.70;1843.20
55329;DHT22;41205;44.264;19.884;2022-08-21T06:14:01;845.40;1868.80
55329;DHT22;41205;44.264;19.884;2022-08-21T06:16:27;820.00;1868.80
55329;DHT22;41205;44.264;19.884;2022-08-21T06:18:53;793.70;1996.80
55329;DHT22;41205;44.264;19.884;2022-08-21T06:21:19;743.00;2099.20
55329;DHT22;41205;44.264;19.884;2022-08-21T06:23:44;742.50;2150.40
55329;DHT22;41205;44.264;19.884;2022-08-21T06:26:11;717.20;2252.80
55329;DHT22;41205;44.264;19.884;2022-08-21T06:28:37;716.90;2355.20
55329;DHT22;41205;44.264;19.884;2022-08-21T06:31:13;691.70;2432.00
55329;DHT22;41205;44.264;19.884;2022-08-21T06:33:39;691.60;2432.00
55329;DHT22;41205;44.264;19.884;2022-08-21T06:36:04;691.30;2432.00
55329;DHT22;41205;44.264;19.884;2022-08-21T06:38:30;666.00;2432.00
55329;DHT22;41205;44.264;19.884;2022-08-21T06:40:55;665.60;2432.00
55329;DHT22;41205;44.264;19.884;2022-08-21T06:43:21;640.90;2432.00
55329;DHT22;41205;44.264;19.884;2022-08-21T06:45:47;640.40;2432.00
55329;DHT22;41205;44.264;19.884;2022-08-21T06:48:12;640.50;2432.00
55329;DHT22;41205;44.264;19.884;2022-08-21T06:50:38;640.30;2432.00
55329;DHT22;41205;44.264;19.884;2022-08-21T06:53:07;615.20;2432.00
55329;DHT22;41205;44.264;19.884;2022-08-21T06:55:33;614.70;2432.00
55329;DHT22;41205;44.264;19.884;2022-08-21T06:57:59;614.60;2432.00
55329;DHT22;41205;44.264;19.884;2022-08-21T07:00:24;589.70;2432.00
55329;DHT22;41205;44.264;19.884;2022-08-21T07:02:50;589.60;2432.00
55329;DHT22;41205;44.264;19.884;2022-08-21T07:05:16;589.40;2432.00
55329;DHT22;41205;44.264;19.884;2022-08-21T07:07:41;589.30;2432.00
55329;DHT22;41205;44.264;19.884;2022-08-21T07:10:07;589.10;2432.00
55329;DHT22;41205;44.264;19.884;2022-08-21T07:12:33;589.00;2432.00
55329;DHT22;41205;44.264;19.884;2022-08-21T07:14:58;589.20;2432.00
55329;DHT22;41205;44.264;19.884;2022-08-21T07:17:24;589.10;2432.00
55329;DHT22;41205;44.264;19.884;2022-08-21T07:19:49;589.00;2432.00
55329;DHT22;41205;44.264;19.884;2022-08-21T07:22:17;589.00;2432.00
55329;DHT22;41205;44.264;19.884;2022-08-21T07:24:44;589.10;2432.00
55329;DHT22;41205;44.264;19.884;2022-08-21T07:27:09;589.30;2432.00
55329;DHT22;41205;44.264;19.884;2022-08-21T07:29:35;589.20;2432.00
55329;DHT22;41205;44.264;19.884;2022-08-21T07:32:00;589.30;2432.00
55329;DHT22;41205;44.264;19.884;2022-08-21T07:34:26;589.20;2432.00
55329;DHT22;41205;44.264;19.884;2022-08-21T07:36:51;589.30;2432.00
55329;DHT22;41205;44.264;19.884;2022-08-21T07:39:17;589.60;2432.00
55329;DHT22;41205;44.264;19.884;2022-08-21T07:41:43;589.60;2432.00
55329;DHT22;41205;44.264;19.884;2022-08-21T07:44:08;589.60;2432.00
55329;DHT22;41205;44.264;19.884;2022-08-21T07:46:34;589.60;2432.00
55329;DHT22;41205;44.264;19.884;2022-08-21T07:48:59;589.50;2432.00
55329;DHT22;41205;44.264;19.884;2022-08-21T07:51:25;589.50;2432.00
55329;DHT22;41205;44.264;19.884;2022-08-21T07:53:52;589.30;2432.00
55329;DHT22;41205;44.264;19.884;2022-08-21T07:56:18;589.30;2432.00
55329;DHT22;41205;44.264;19.884;2022-08-21T07:58:44;588.90;2432.00
55329;DHT22;41205;44.264;19.884;2022-08-21T08:01:10;589.00;2432.00
55329;DHT22;41205;44.264;19.884;2022-08-21T08:03:36;589.10;2432.00
55329;DHT22;41205;44.264;19.884;2022-08-21T08:06:01;588.90;2432.00
55329;DHT22;41205;44.264;19.884;2022-08-21T08:08:29;589.00;2432.00
55329;DHT22;41205;44.264;19.884;2022-08-21T08:10:56;589.10;2432.00
55329;DHT22;41205;44.264;19.884;2022-08-21T08:13:22;589.10;2432.00
55329;DHT22;41205;44.264;19.884;2022-08-21T08:15:48;589.30;2432.00
55329;DHT22;41205;44.264;19.884;2022-08-21T08:18:14;589.20;2432.00
55329;DHT22;41205;44.264;19.884;2022-08-21T08:20:39;589.30;2432.00
55329;DHT22;41205;44.264;19.884;2022-08-21T08:23:06;589.40;2432.00
55329;DHT22;41205;44.264;19.884;2022-08-21T08:25:32;589.20;2432.00
55329;DHT22;41205;44.264;19.884;2022-08-21T08:27:57;589.40;2432.00
55329;DHT22;41205;44.264;19.884;2022-08-21T08:30:23;589.50;2432.00
55329;DHT22;41205;44.264;19.884;2022-08-21T08:32:49;589.50;2432.00
55329;DHT22;41205;44.264;19.884;2022-08-21T08:35:15;589.70;2432.00
55329;DHT22;41205;44.264;19.884;2022-08-21T08:37:41;589.70;2432.00
55329;DHT22;41205;44.264;19.884;2022-08-21T08:40:13;589.60;2432.00
55329;DHT22;41205;44.264;19.884;2022-08-21T08:42:39;589.30;2432.00
55329;DHT22;41205;44.264;19.884;2022-08-21T08:45:08;589.10;2432.00
55329;DHT22;41205;44.264;19.884;2022-08-21T08:47:36;588.90;2432.00
55329;DHT22;41205;44.264;19.884;2022-08-21T08:50:22;588.80;2432.00
55329;DHT22;41205;44.264;19.884;2022-08-21T08:52:49;588.90;2432.00
55329;DHT22;41205;44.264;19.884;2022-08-21T08:55:28;588.90;2432.00
55329;DHT22;41205;44.264;19.884;2022-08-21T08:57:57;588.80;2432.00
55329;DHT22;41205;44.264;19.884;2022-08-21T09:00:23;588.90;2432.00
55329;DHT22;41205;44.264;19.884;2022-08-21T09:02:51;588.90;2432.00
55329;DHT22;41205;44.264;19.884;2022-08-21T09:05:28;564.10;2432.00
55329;DHT22;41205;44.264;19.884;2022-08-21T09:10:21;564.10;2432.00
55329;DHT22;41205;44.264;19.884;2022-08-21T09:17:55;564.00;2432.00
55329;DHT22;41205;44.264;19.884;2022-08-21T09:22:50;564.00;2432.00
55329;DHT22;41205;44.264;19.884;2022-08-21T09:25:22;564.10;2432.00
55329;DHT22;41205;44.264;19.884;2022-08-21T09:27:49;588.80;2432.00
55329;DHT22;41205;44.264;19.884;2022-08-21T09:30:15;588.90;2432.00
55329;DHT22;41205;44.264;19.884;2022-08-21T09:32:42;588.90;2432.00
55329;DHT22;41205;44.264;19.884;2022-08-21T09:37:35;589.10;2432.00
55329;DHT22;41205;44.264;19.884;2022-08-21T09:42:58;589.30;2432.00
55329;DHT22;41205;44.264;19.884;2022-08-21T09:45:24;589.40;2432.00
55329;DHT22;41205;44.264;19.884;2022-08-21T09:47:49;589.40;2432.00
55329;DHT22;41205;44.264;19.884;2022-08-21T09:50:17;589.30;2432.00
55329;DHT22;41205;44.264;19.884;2022-08-21T09:52:47;589.30;2432.00
55329;DHT22;41205;44.264;19.884;2022-08-21T09:55:18;589.60;2432.00
55329;DHT22;41205;44.264;19.884;2022-08-21T09:58:04;589.70;2432.00
55329;DHT22;41205;44.264;19.884;2022-08-21T10:00:32;614.40;2432.00
55329;DHT22;41205;44.264;19.884;2022-08-21T10:03:18;614.40;2432.00
55329;DHT22;41205;44.264;19.884;2022-08-21T10:05:51;614.40;2432.00
55329;DHT22;41205;44.264;19.884;2022-08-21T10:08:21;614.50;2432.00
55329;DHT22;41205;44.264;19.884;2022-08-21T10:10:52;589.70;2432.00
55329;DHT22;41205;44.264;19.884;2022-08-21T10:21:20;589.10;2432.00
55329;DHT22;41205;44.264;19.884;2022-08-21T10:34:18;589.50;2432.00
55329;DHT22;41205;44.264;19.884;2022-08-21T10:37:04;589.70;2432.00
55329;DHT22;41205;44.264;19.884;2022-08-21T10:42:27;614.50;2432.00
55329;DHT22;41205;44.264;19.884;2022-08-21T10:48:04;589.70;2432.00
55329;DHT22;41205;44.264;19.884;2022-08-21T10:52:51;614.50;2432.00
55329;DHT22;41205;44.264;19.884;2022-08-21T10:55:19;614.80;2432.00
55329;DHT22;41205;44.264;19.884;2022-08-21T11:00:13;615.10;2432.00
55329;DHT22;41205;44.264;19.884;2022-08-21T11:02:51;615.20;2432.00
55329;DHT22;41205;44.264;19.884;2022-08-21T11:05:31;615.10;2432.00
55329;DHT22;41205;44.264;19.884;2022-08-21T11:08:02;614.80;2432.00
55329;DHT22;41205;44.264;19.884;2022-08-21T11:10:31;614.80;2432.00
55329;DHT22;41205;44.264;19.884;2022-08-21T11:13:00;614.90;2432.00
55329;DHT22;41205;44.264;19.884;2022-08-21T11:20:30;615.00;2432.00
55329;DHT22;41205;44.264;19.884;2022-08-21T11:22:58;615.10;2432.00
55329;DHT22;41205;44.264;19.884;2022-08-21T11:25:27;615.00;2432.00
55329;DHT22;41205;44.264;19.884;2022-08-21T11:27:58;614.90;2432.00
55329;DHT22;41205;44.264;19.884;2022-08-21T11:30:25;615.00;2432.00
55329;DHT22;41205;44.264;19.884;2022-08-21T11:40:56;614.40;2432.00
55329;DHT22;41205;44.264;19.884;2022-08-21T11:46:00;589.50;2432.00
55329;DHT22;41205;44.264;19.884;2022-08-21T11:48:50;589.50;2432.00
55329;DHT22;41205;44.264;19.884;2022-08-21T11:51:20;589.30;2432.00
55329;DHT22;41205;44.264;19.884;2022-08-21T11:53:48;588.90;2432.00
55329;DHT22;41205;44.264;19.884;2022-08-21T11:56:18;588.80;2432.00
55329;DHT22;41205;44.264;19.884;2022-08-21T11:58:47;588.80;2432.00
55329;DHT22;41205;44.264;19.884;2022-08-21T12:01:24;588.90;2432.00
55329;DHT22;41205;44.264;19.884;2022-08-21T12:03:53;588.90;2432.00
55329;DHT22;41205;44.264;19.884;2022-08-21T12:06:27;588.90;2432.00
55329;DHT22;41205;44.264;19.884;2022-08-21T12:08:57;589.40;2432.00
55329;DHT22;41205;44.264;19.884;2022-08-21T12:11:24;589.60;2432.00
55329;DHT22;41205;44.264;19.884;2022-08-21T12:19:04;614.80;2432.00
55329;DHT22;41205;44.264;19.884;2022-08-21T12:21:30;615.10;2432.00
55329;DHT22;41205;44.264;19.884;2022-08-21T12:26:51;615.20;2432.00
55329;DHT22;41205;44.264;19.884;2022-08-21T12:31:53;640.20;2432.00
55329;DHT22;41205;44.264;19.884;2022-08-21T12:34:20;640.60;2432.00
55329;DHT22;41205;44.264;19.884;2022-08-21T12:37:05;640.60;2432.00
55329;DHT22;41205;44.264;19.884;2022-08-21T12:39:32;640.80;2432.00
55329;DHT22;41205;44.264;19.884;2022-08-21T12:42:00;640.70;2432.00
55329;DHT22;41205;44.264;19.884;2022-08-21T12:46:58;640.60;2432.00
55329;DHT22;41205;44.264;19.884;2022-08-21T12:52:44;640.20;2432.00
55329;DHT22;41205;44.264;19.884;2022-08-21T12:54:43;640.10;2432.00
55329;DHT22;41205;44.264;19.884;2022-08-21T12:57:16;615.30;2432.00
55329;DHT22;41205;44.264;19.884;2022-08-21T12:59:42;640.20;2432.00
55329;DHT22;41205;44.264;19.884;2022-08-21T13:02:18;640.20;2432.00
55329;DHT22;41205;44.264;19.884;2022-08-21T13:04:45;640.20;2432.00
55329;DHT22;41205;44.264;19.884;2022-08-21T13:07:13;640.40;2432.00
55329;DHT22;41205;44.264;19.884;2022-08-21T13:09:48;640.20;2432.00
55329;DHT22;41205;44.264;19.884;2022-08-21T13:12:14;640.40;2432.00
55329;DHT22;41205;44.264;19.884;2022-08-21T13:14:42;640.50;2432.00
55329;DHT22;41205;44.264;19.884;2022-08-21T13:17:07;640.60;2432.00
55329;DHT22;41205;44.264;19.884;2022-08-21T13:19:34;640.50;2432.00
55329;DHT22;41205;44.264;19.884;2022-08-21T13:22:00;640.50;2432.00
55329;DHT22;41205;44.264;19.884;2022-08-21T13:24:31;640.50;2432.00
55329;DHT22;41205;44.264;19.884;2022-08-21T13:26:57;640.40;2432.00
55329;DHT22;41205;44.264;19.884;2022-08-21T13:29:32;640.10;2432.00
55329;DHT22;41205;44.264;19.884;2022-08-21T13:32:00;640.20;2432.00
55329;DHT22;41205;44.264;19.884;2022-08-21T13:34:29;640.10;2432.00
55329;DHT22;41205;44.264;19.884;2022-08-21T13:36:57;615.20;2432.00
55329;DHT22;41205;44.264;19.884;2022-08-21T13:39:23;615.10;2432.00
55329;DHT22;41205;44.264;19.884;2022-08-21T13:41:50;615.10;2432.00
55329;DHT22;41205;44.264;19.884;2022-08-21T13:44:23;615.00;2432.00
55329;DHT22;41205;44.264;19.884;2022-08-21T13:46:52;614.90;2432.00
55329;DHT22;41205;44.264;19.884;2022-08-21T13:49:19;614.70;2432.00
55329;DHT22;41205;44.264;19.884;2022-08-21T13:51:45;614.80;2432.00
55329;DHT22;41205;44.264;19.884;2022-08-21T13:56:46;615.20;2432.00
55329;DHT22;41205;44.264;19.884;2022-08-21T13:59:22;640.20;2432.00
55329;DHT22;41205;44.264;19.884;2022-08-21T14:01:49;640.40;2432.00
55329;DHT22;41205;44.264;19.884;2022-08-21T14:06:45;640.40;2432.00
55329;DHT22;41205;44.264;19.884;2022-08-21T14:09:12;640.10;2432.00
55329;DHT22;41205;44.264;19.884;2022-08-21T14:11:38;640.30;2432.00
55329;DHT22;41205;44.264;19.884;2022-08-21T14:14:22;640.60;2432.00
55329;DHT22;41205;44.264;19.884;2022-08-21T14:16:56;640.50;2432.00
55329;DHT22;41205;44.264;19.884;2022-08-21T14:19:24;640.10;2432.00
55329;DHT22;41205;44.264;19.884;2022-08-21T14:21:49;640.10;2432.00
55329;DHT22;41205;44.264;19.884;2022-08-21T14:27:06;615.10;2432.00
55329;DHT22;41205;44.264;19.884;2022-08-21T14:29:33;615.20;2432.00
55329;DHT22;41205;44.264;19.884;2022-08-21T14:31:59;615.20;2432.00
55329;DHT22;41205;44.264;19.884;2022-08-21T14:34:33;615.20;2432.00
55329;DHT22;41205;44.264;19.884;2022-08-21T14:36:58;615.30;2432.00
55329;DHT22;41205;44.264;19.884;2022-08-21T14:39:24;615.20;2432.00
55329;DHT22;41205;44.264;19.884;2022-08-21T14:41:49;640.10;2432.00
55329;DHT22;41205;44.264;19.884;2022-08-21T14:44:17;640.00;2432.00
55329;DHT22;41205;44.264;19.884;2022-08-21T14:46:43;640.10;2432.00
55329;DHT22;41205;44.264;19.884;2022-08-21T14:49:09;640.10;2432.00
55329;DHT22;41205;44.264;19.884;2022-08-21T14:51:35;640.00;2432.00
55329;DHT22;41205;44.264;19.884;2022-08-21T14:54:01;615.30;2432.00
55329;DHT22;41205;44.264;19.884;2022-08-21T14:56:26;615.00;2432.00
55329;DHT22;41205;44.264;19.884;2022-08-21T14:58:52;614.90;2432.00
55329;DHT22;41205;44.264;19.884;2022-08-21T15:01:19;614.80;2432.00
55329;DHT22;41205;44.264;19.884;2022-08-21T15:03:45;614.80;2432.00
55329;DHT22;41205;44.264;19.884;2022-08-21T15:06:12;614.70;2432.00
55329;DHT22;41205;44.264;19.884;2022-08-21T15:08:38;614.70;2432.00
55329;DHT22;41205;44.264;19.884;2022-08-21T15:11:05;614.80;2432.00
55329;DHT22;41205;44.264;19.884;2022-08-21T15:13:31;614.60;2432.00
55329;DHT22;41205;44.264;19.884;2022-08-21T15:15:57;614.60;2432.00
55329;DHT22;41205;44.264;19.884;2022-08-21T15:18:24;614.40;2432.00
55329;DHT22;41205;44.264;19.884;2022-08-21T15:20:50;589.70;2432.00
55329;DHT22;41205;44.264;19.884;2022-08-21T15:23:15;589.70;2432.00
55329;DHT22;41205;44.264;19.884;2022-08-21T15:25:42;589.60;2432.00
55329;DHT22;41205;44.264;19.884;2022-08-21T15:28:07;589.60;2432.00
55329;DHT22;41205;44.264;19.884;2022-08-21T15:30:36;589.50;2432.00
55329;DHT22;41205;44.264;19.884;2022-08-21T15:33:02;589.40;2432.00
55329;DHT22;41205;44.264;19.884;2022-08-21T15:35:27;589.50;2432.00
55329;DHT22;41205;44.264;19.884;2022-08-21T15:37:53;589.50;2432.00
55329;DHT22;41205;44.264;19.884;2022-08-21T15:40:18;589.50;2432.00
55329;DHT22;41205;44.264;19.884;2022-08-21T15:42:44;589.50;2432.00
55329;DHT22;41205;44.264;19.884;2022-08-21T15:45:10;589.30;2432.00
55329;DHT22;41205;44.264;19.884;2022-08-21T15:47:37;589.30;2432.00
55329;DHT22;41205;44.264;19.884;2022-08-21T15:50:04;589.20;2432.00
55329;DHT22;41205;44.264;19.884;2022-08-21T15:52:30;589.20;2432.00
55329;DHT22;41205;44.264;19.884;2022-08-21T15:54:55;589.40;2432.00
55329;DHT22;41205;44.264;19.884;2022-08-21T15:57:22;589.50;2432.00
55329;DHT22;41205;44.264;19.884;2022-08-21T15:59:54;589.50;2432.00
55329;DHT22;41205;44.264;19.884;2022-08-21T16:02:24;589.60;2432.00
55329;DHT22;41205;44.264;19.884;2022-08-21T16:04:50;589.60;2432.00